Time;durP1;ratioP1;P1;durP2;ratioP2;P2;SDS_P1;SDS_P2;PMS_P1;PMS_P2;Temp;Humidity;BMP_temperature;BMP_pressure;BME280_temperature;BME280_humidity;BME280_pressure;Samples;Min_cycle;Max_cycle;Signal;HPM_P1;HPM_P2
2021/06/21 00:01:05;;;;;;;11.50;2.57;;;;;;;;;;5005383;28;20061;-59
2021/06/21 00:03:33;;;;;;;9.95;2.30;;;;;;;;;;5001420;28;20568;-59
2021/06/21 00:06:00;;;;;;;6.82;2.38;;;;;;;;;;5007437;28;20426;-59
2021/06/21 00:08:26;;;;;;;8.40;2.53;;;;;;;;;;5003358;28;20070;-59
2021/06/21 00:10:53;;;;;;;8.75;2.60;;;;;;;;;;5003345;28;20046;-59
2021/06/21 00:13:20;;;;;;;8.07;1.88;;;;;;;;;;4995940;28;20577;-59
2021/06/21 00:15:46;;;;;;;6.13;1.80;;;;;;;;;;5005338;28;20042;-59
2021/06/21 00:18:14;;;;;;;8.45;1.70;;;;;;;;;;5002317;28;20050;-59
2021/06/21 00:20:49;;;;;;;6.88;1.83;;;;;;;;;;5006722;28;20074;-59
2021/06/21 00:23:16;;;;;;;4.03;1.48;;;;;;;;;;5005343;28;20053;-59
2021/06/21 00:25:43;;;;;;;8.60;2.03;;;;;;;;;;5006787;28;20497;-59
2021/06/21 00:28:10;;;;;;;4.00;1.80;;;;;;;;;;5003582;28;20288;-59
2021/06/21 00:30:37;;;;;;;5.53;1.50;;;;;;;;;;5006057;28;20553;-59
2021/06/21 00:33:03;;;;;;;6.85;1.60;;;;;;;;;;5000644;28;20289;-59
2021/06/21 00:35:30;;;;;;;14.00;2.00;;;;;;;;;;5001191;28;20074;-59
2021/06/21 00:37:58;;;;;;;4.25;1.33;;;;;;;;;;5007359;28;20038;-59
2021/06/21 00:40:24;;;;;;;4.20;1.45;;;;;;;;;;5006516;28;20065;-59
2021/06/21 00:42:51;;;;;;;1.90;1.20;;;;;;;;;;5011201;28;20100;-59
2021/06/21 00:45:20;;;;;;;11.43;1.40;;;;;;;;;;5006752;28;20300;-59
2021/06/21 00:47:49;;;;;;;7.05;1.20;;;;;;;;;;5004104;28;20042;-59
2021/06/21 00:50:15;;;;;;;5.65;1.38;;;;;;;;;;5006328;28;20037;-59
2021/06/21 00:52:43;;;;;;;6.15;1.20;;;;;;;;;;5014458;28;20509;-59
2021/06/21 00:55:11;;;;;;;3.57;1.13;;;;;;;;;;5008153;28;20124;-59
2021/06/21 00:57:40;;;;;;;4.57;1.40;;;;;;;;;;5009078;28;20292;-59
2021/06/21 01:00:08;;;;;;;5.07;0.93;;;;;;;;;;5038804;28;20044;-59
2021/06/21 01:02:35;;;;;;;5.97;1.40;;;;;;;;;;5002585;28;20482;-59
2021/06/21 01:05:03;;;;;;;3.72;1.20;;;;;;;;;;5006201;28;20133;-59
2021/06/21 01:07:30;;;;;;;4.72;1.20;;;;;;;;;;5001036;28;20182;-59
2021/06/21 01:09:57;;;;;;;4.75;1.25;;;;;;;;;;5003284;28;20431;-59
2021/06/21 01:12:34;;;;;;;9.30;1.60;;;;;;;;;;5003923;28;20057;-59
2021/06/21 01:15:07;;;;;;;4.72;1.25;;;;;;;;;;5010246;28;20052;-59
2021/06/21 01:17:43;;;;;;;2.60;1.02;;;;;;;;;;5007969;28;20054;-59
2021/06/21 01:20:29;;;;;;;5.18;1.50;;;;;;;;;;5005697;28;20046;-59
2021/06/21 01:23:02;;;;;;;4.55;1.40;;;;;;;;;;5006331;28;20048;-59
2021/06/21 01:25:36;;;;;;;5.90;1.40;;;;;;;;;;5003458;28;20086;-59
2021/06/21 01:28:42;;;;;;;6.80;1.88;;;;;;;;;;5007768;28;20096;-59
2021/06/21 01:31:14;;;;;;;6.15;1.58;;;;;;;;;;5009412;28;20076;-59
2021/06/21 01:33:41;;;;;;;7.80;1.63;;;;;;;;;;4998506;28;20104;-59
2021/06/21 01:36:09;;;;;;;6.90;1.67;;;;;;;;;;5004547;28;20042;-59
2021/06/21 01:38:40;;;;;;;10.13;1.75;;;;;;;;;;5000926;28;20046;-59
2021/06/21 01:41:11;;;;;;;7.50;1.70;;;;;;;;;;5003708;28;20050;-59
2021/06/21 01:43:40;;;;;;;12.88;2.50;;;;;;;;;;5002882;28;20567;-59
2021/06/21 01:46:09;;;;;;;6.97;1.42;;;;;;;;;;5002668;28;20417;-59
2021/06/21 01:48:38;;;;;;;8.57;1.70;;;;;;;;;;5009057;28;20041;-59
2021/06/21 01:51:05;;;;;;;6.75;1.70;;;;;;;;;;5003022;28;20041;-59
2021/06/21 01:53:32;;;;;;;;;;;;;;;;;;5004830;28;20061;-59
2021/06/21 01:55:59;;;;;;;11.38;2.13;;;;;;;;;;5006606;28;19948;-59
2021/06/21 01:58:29;;;;;;;13.93;2.08;;;;;;;;;;5006593;28;20124;-59
2021/06/21 02:00:56;;;;;;;11.07;2.10;;;;;;;;;;5004602;28;20041;-59
2021/06/21 02:03:24;;;;;;;8.68;2.17;;;;;;;;;;5001939;28;20145;-59
2021/06/21 02:05:52;;;;;;;7.18;1.92;;;;;;;;;;5003398;28;20068;-59
2021/06/21 02:08:23;;;;;;;7.40;1.60;;;;;;;;;;5009261;28;20533;-59
2021/06/21 02:10:52;;;;;;;5.97;1.42;;;;;;;;;;5002353;28;20487;-59
2021/06/21 02:13:20;;;;;;;5.80;1.70;;;;;;;;;;5002959;28;20121;-59
2021/06/21 02:15:48;;;;;;;13.38;1.85;;;;;;;;;;5001563;28;20050;-59
2021/06/21 02:18:17;;;;;;;7.97;1.92;;;;;;;;;;5007166;28;20042;-59
2021/06/21 02:20:45;;;;;;;7.65;1.60;;;;;;;;;;5004820;28;20485;-59
2021/06/21 02:23:12;;;;;;;8.27;1.80;;;;;;;;;;5006116;28;20497;-59
2021/06/21 02:25:39;;;;;;;6.55;1.60;;;;;;;;;;5006926;28;20054;-59
2021/06/21 02:28:07;;;;;;;14.77;2.50;;;;;;;;;;5005372;28;20104;-59
2021/06/21 02:30:34;;;;;;;10.63;2.67;;;;;;;;;;5004193;28;20365;-59
2021/06/21 02:33:01;;;;;;;4.50;1.65;;;;;;;;;;4999218;28;20050;-59
2021/06/21 02:35:28;;;;;;;8.52;2.03;;;;;;;;;;5002755;28;20489;-59
2021/06/21 02:37:55;;;;;;;5.95;1.85;;;;;;;;;;5006922;28;20053;-59
2021/06/21 02:40:24;;;;;;;8.05;1.83;;;;;;;;;;5004156;28;20417;-59
2021/06/21 02:42:50;;;;;;;11.13;2.63;;;;;;;;;;5004323;28;20108;-59
2021/06/21 02:45:17;;;;;;;11.07;2.58;;;;;;;;;;5002422;28;20061;-59
2021/06/21 02:47:44;;;;;;;9.40;2.30;;;;;;;;;;5006226;28;20046;-59
2021/06/21 02:50:13;;;;;;;9.98;1.98;;;;;;;;;;5004785;28;20046;-59
2021/06/21 02:53:06;;;;;;;20.58;2.83;;;;;;;;;;5007304;28;20048;-59
2021/06/21 02:55:40;;;;;;;6.60;2.28;;;;;;;;;;4983542;28;20531;-59
2021/06/21 02:58:06;;;;;;;12.23;2.20;;;;;;;;;;5003762;28;20042;-59
2021/06/21 03:00:34;;;;;;;6.47;2.45;;;;;;;;;;5007579;28;20057;-59
2021/06/21 03:03:01;;;;;;;5.95;2.15;;;;;;;;;;5003057;28;20042;-59
2021/06/21 03:05:29;;;;;;;9.20;2.20;;;;;;;;;;5006503;28;20049;-59
2021/06/21 03:07:56;;;;;;;6.05;2.60;;;;;;;;;;5007512;28;20296;-59
2021/06/21 03:10:24;;;;;;;14.13;2.42;;;;;;;;;;5004037;28;20080;-59
2021/06/21 03:12:51;;;;;;;;;;;;;;;;;;5003890;28;20054;-59
2021/06/21 03:15:19;;;;;;;9.95;2.38;;;;;;;;;;5004445;28;19921;-59
2021/06/21 03:17:50;;;;;;;9.10;2.30;;;;;;;;;;5001555;28;20132;-59
2021/06/21 03:20:19;;;;;;;12.73;2.83;;;;;;;;;;5005277;28;20124;-59
2021/06/21 03:22:53;;;;;;;12.48;2.78;;;;;;;;;;5005162;28;20046;-59
2021/06/21 03:25:24;;;;;;;13.20;2.53;;;;;;;;;;5002352;28;20521;-59
2021/06/21 03:27:56;;;;;;;10.45;2.45;;;;;;;;;;5008145;28;20081;-59
2021/06/21 03:30:23;;;;;;;15.88;3.38;;;;;;;;;;5002489;28;20560;-59
2021/06/21 03:32:54;;;;;;;8.38;2.58;;;;;;;;;;5007590;28;20133;-59
2021/06/21 03:35:21;;;;;;;9.32;2.60;;;;;;;;;;5002031;28;20133;-59
2021/06/21 03:37:50;;;;;;;10.10;3.08;;;;;;;;;;4998314;28;20258;-59
2021/06/21 03:40:16;;;;;;;11.30;2.95;;;;;;;;;;5001955;28;20054;-59
2021/06/21 03:42:44;;;;;;;7.03;2.60;;;;;;;;;;5003151;28;20054;-59
2021/06/21 03:45:11;;;;;;;8.90;2.90;;;;;;;;;;4998315;28;20073;-59
2021/06/21 03:47:39;;;;;;;12.35;3.10;;;;;;;;;;5001322;28;20092;-59
2021/06/21 04:26:35;;;;;;;11.48;3.17;;;;;;;;;;5107976;27;20780;-60
2021/06/21 04:29:02;;;;;;;8.38;2.85;;;;;;;;;;5077280;28;20044;-60
2021/06/21 04:31:47;;;;;;;13.43;3.35;;;;;;;;;;5073742;28;20051;-60
2021/06/21 04:34:14;;;;;;;11.57;3.13;;;;;;;;;;5077749;28;20029;-60
2021/06/21 04:36:40;;;;;;;13.40;3.17;;;;;;;;;;5076869;28;20048;-60
2021/06/21 04:39:07;;;;;;;16.95;3.00;;;;;;;;;;5082512;28;20491;-60
2021/06/21 04:41:34;;;;;;;10.10;2.80;;;;;;;;;;5081243;28;20098;-60
2021/06/21 04:44:00;;;;;;;10.05;2.70;;;;;;;;;;5079111;28;20033;-60
2021/06/21 04:46:29;;;;;;;7.60;2.72;;;;;;;;;;5079891;28;20048;-60
2021/06/21 04:48:56;;;;;;;14.98;3.22;;;;;;;;;;5079812;28;20492;-60
2021/06/21 04:51:23;;;;;;;13.05;2.83;;;;;;;;;;5075023;28;20099;-60
2021/06/21 04:53:50;;;;;;;10.07;2.72;;;;;;;;;;5074752;28;20451;-60
2021/06/21 04:56:17;;;;;;;8.30;3.00;;;;;;;;;;5077052;28;20059;-60
2021/06/21 04:58:44;;;;;;;9.75;2.50;;;;;;;;;;5075700;28;20376;-61
2021/06/21 05:01:10;;;;;;;10.40;2.67;;;;;;;;;;5077638;28;20044;-60
2021/06/21 05:03:40;;;;;;;9.90;2.30;;;;;;;;;;5074631;28;20065;-60
2021/06/21 05:06:07;;;;;;;8.95;2.20;;;;;;;;;;5077560;28;20489;-60
2021/06/21 05:08:34;;;;;;;7.40;2.17;;;;;;;;;;5074679;28;20065;-60
2021/06/21 05:11:01;;;;;;;9.45;2.67;;;;;;;;;;5076749;28;20044;-60
2021/06/21 05:13:27;;;;;;;8.23;2.83;;;;;;;;;;5073534;28;20037;-60
2021/06/21 05:15:54;;;;;;;6.85;2.30;;;;;;;;;;5077994;28;20804;-60
2021/06/21 05:18:21;;;;;;;18.10;2.65;;;;;;;;;;5074824;28;20040;-60
2021/06/21 05:26:34;;;;;;;10.70;2.67;;;;;;;;;;5159936;27;20887;-60
2021/06/21 05:29:00;;;;;;;6.93;2.40;;;;;;;;;;5133482;27;20494;-60
2021/06/21 05:31:27;;;;;;;5.87;2.10;;;;;;;;;;5142285;27;20043;-60
2021/06/21 05:33:55;;;;;;;13.27;2.42;;;;;;;;;;5128893;27;20068;-60
2021/06/21 05:36:22;;;;;;;6.23;2.17;;;;;;;;;;5132897;27;20038;-60
2021/06/21 05:38:49;;;;;;;10.13;2.10;;;;;;;;;;5135741;27;20088;-60
2021/06/21 05:41:16;;;;;;;9.60;2.92;;;;;;;;;;5141583;27;20057;-60
2021/06/21 06:26:32;;;;;;;14.27;2.72;;;;;;;;;;5090808;27;20385;-60
2021/06/21 06:29:01;;;;;;;12.75;2.72;;;;;;;;;;5049470;28;20042;-60
2021/06/21 06:31:28;;;;;;;11.13;2.30;;;;;;;;;;5047840;28;20051;-60
2021/06/21 06:33:56;;;;;;;12.50;2.72;;;;;;;;;;5050220;28;20103;-58
2021/06/21 06:36:24;;;;;;;9.20;2.53;;;;;;;;;;5048182;28;20496;-59
2021/06/21 06:38:51;;;;;;;10.93;3.10;;;;;;;;;;5047912;28;20037;-59
2021/06/21 06:41:18;;;;;;;12.03;3.13;;;;;;;;;;5047208;28;20041;-59
2021/06/21 06:43:44;;;;;;;9.03;3.17;;;;;;;;;;5048496;28;20306;-59
2021/06/21 06:46:12;;;;;;;9.43;2.33;;;;;;;;;;5050770;28;20308;-59
2021/06/21 06:48:38;;;;;;;14.18;3.60;;;;;;;;;;5051486;28;20091;-59
2021/06/21 06:51:06;;;;;;;;;;;;;;;;;;5050755;28;20048;-59
2021/06/21 06:53:47;;;;;;;8.93;2.50;;;;;;;;;;5044243;28;19927;-59
2021/06/21 06:59:00;;;;;;;12.20;2.40;;;;;;;;;;5044938;28;20041;-59
2021/06/21 07:01:28;;;;;;;9.80;2.40;;;;;;;;;;5043657;28;20059;-59
2021/06/21 07:03:55;;;;;;;7.40;2.13;;;;;;;;;;5045320;28;20041;-59
2021/06/21 07:06:21;;;;;;;8.07;2.23;;;;;;;;;;5039550;28;20037;-59
2021/06/21 07:08:49;;;;;;;;;;;;;;;;;;5047536;28;20032;-59
2021/06/21 07:11:15;;;;;;;8.40;2.75;;;;;;;;;;5042951;28;19921;-59
2021/06/21 07:13:42;;;;;;;7.93;2.33;;;;;;;;;;5044176;28;20053;-59
2021/06/21 07:16:09;;;;;;;9.73;2.63;;;;;;;;;;5044748;28;20623;-59
2021/06/21 07:18:37;;;;;;;7.82;2.47;;;;;;;;;;5054908;28;20049;-59
2021/06/21 07:21:12;;;;;;;8.95;2.42;;;;;;;;;;5053207;28;20033;-59
2021/06/21 07:23:38;;;;;;;8.68;2.40;;;;;;;;;;5047987;28;20037;-59
2021/06/21 07:26:06;;;;;;;14.70;2.40;;;;;;;;;;5045816;28;20561;-59
2021/06/21 07:28:33;;;;;;;6.53;2.13;;;;;;;;;;5041445;28;20132;-60
2021/06/21 07:31:00;;;;;;;8.77;1.95;;;;;;;;;;5046370;28;20043;-59
2021/06/21 07:33:27;;;;;;;12.75;2.53;;;;;;;;;;5049844;28;20045;-61
2021/06/21 07:35:54;;;;;;;10.77;2.90;;;;;;;;;;5046122;28;20041;-60
2021/06/21 07:38:21;;;;;;;7.13;2.00;;;;;;;;;;5034983;28;20041;-59
2021/06/21 07:40:48;;;;;;;6.70;1.95;;;;;;;;;;5031377;28;20033;-59
2021/06/21 07:43:15;;;;;;;7.53;2.58;;;;;;;;;;5039475;28;20037;-60
2021/06/21 07:45:42;;;;;;;7.00;2.25;;;;;;;;;;5029990;28;20556;-60
2021/06/21 07:48:10;;;;;;;12.98;2.80;;;;;;;;;;5035105;28;20037;-59
2021/06/21 07:50:38;;;;;;;10.38;2.40;;;;;;;;;;5037186;28;20052;-59
2021/06/21 07:53:06;;;;;;;9.02;2.40;;;;;;;;;;5032288;28;20042;-59
2021/06/21 07:55:34;;;;;;;10.15;2.53;;;;;;;;;;5032867;28;20046;-59
2021/06/21 07:58:02;;;;;;;7.72;2.35;;;;;;;;;;5029871;28;20033;-59
2021/06/21 08:00:38;;;;;;;9.18;2.38;;;;;;;;;;5026287;28;20116;-59
2021/06/21 08:03:09;;;;;;;17.70;2.75;;;;;;;;;;5029550;28;20034;-59
2021/06/21 08:05:37;;;;;;;10.18;2.90;;;;;;;;;;5031448;28;20076;-59
2021/06/21 08:08:04;;;;;;;5.18;2.30;;;;;;;;;;5028865;28;20041;-59
2021/06/21 08:10:31;;;;;;;14.48;2.58;;;;;;;;;;5031021;28;20045;-59
2021/06/21 08:12:58;;;;;;;9.03;2.40;;;;;;;;;;5035822;28;20045;-59
2021/06/21 08:15:25;;;;;;;;;;;;;;;;;;5032490;28;20303;-59
2021/06/21 08:17:52;;;;;;;17.05;2.67;;;;;;;;;;5034753;28;19921;-59
2021/06/21 08:20:19;;;;;;;9.75;2.28;;;;;;;;;;5031851;28;20052;-59
2021/06/21 08:22:46;;;;;;;12.55;3.00;;;;;;;;;;5030078;28;20042;-59
2021/06/21 08:25:15;;;;;;;9.20;2.42;;;;;;;;;;5033893;28;20057;-59
2021/06/21 08:27:42;;;;;;;6.05;2.40;;;;;;;;;;5033208;28;20067;-59
2021/06/21 08:30:09;;;;;;;9.60;2.47;;;;;;;;;;5041506;28;20091;-59
2021/06/21 08:32:35;;;;;;;7.00;2.63;;;;;;;;;;5038277;28;20045;-59
2021/06/21 08:35:02;;;;;;;13.10;2.75;;;;;;;;;;5034502;28;20042;-59
2021/06/21 08:37:29;;;;;;;8.53;2.90;;;;;;;;;;5028836;28;20060;-59
2021/06/21 08:39:57;;;;;;;17.77;3.05;;;;;;;;;;5037392;28;20306;-59
2021/06/21 08:42:24;;;;;;;8.98;2.53;;;;;;;;;;5035333;28;20052;-59
2021/06/21 08:44:52;;;;;;;13.20;3.00;;;;;;;;;;5033696;28;20104;-60
2021/06/21 08:47:19;;;;;;;8.00;2.80;;;;;;;;;;5033702;28;20044;-59
2021/06/21 08:49:48;;;;;;;12.95;3.22;;;;;;;;;;5027703;28;20084;-60
2021/06/21 08:52:16;;;;;;;9.13;2.97;;;;;;;;;;5027705;28;20046;-59
2021/06/21 08:54:43;;;;;;;8.13;2.85;;;;;;;;;;5032414;28;20042;-59
2021/06/21 08:57:11;;;;;;;11.43;3.00;;;;;;;;;;5026521;28;20038;-59
2021/06/21 08:59:38;;;;;;;9.55;3.30;;;;;;;;;;5023789;28;20049;-59
2021/06/21 09:02:15;;;;;;;9.77;3.15;;;;;;;;;;5026934;28;20053;-59
2021/06/21 09:04:42;;;;;;;11.98;3.22;;;;;;;;;;5025348;28;20046;-59
2021/06/21 09:07:22;;;;;;;13.13;3.10;;;;;;;;;;5026463;28;20041;-59
2021/06/21 09:09:54;;;;;;;11.00;3.40;;;;;;;;;;5027385;28;20293;-60
2021/06/21 09:12:21;;;;;;;;;;;;;;;;;;5029354;28;20047;-59
2021/06/21 09:14:49;;;;;;;8.82;3.17;;;;;;;;;;5036140;28;19920;-59
2021/06/21 09:17:21;;;;;;;15.05;3.10;;;;;;;;;;5035453;28;20408;-59
2021/06/21 09:19:53;;;;;;;15.15;3.05;;;;;;;;;;5036158;28;20540;-59
2021/06/21 09:22:35;;;;;;;8.07;2.90;;;;;;;;;;5034648;28;20069;-59
2021/06/21 09:25:05;;;;;;;10.18;2.50;;;;;;;;;;5027267;28;20093;-59
2021/06/21 09:27:33;;;;;;;9.27;2.70;;;;;;;;;;5031190;28;20095;-59
2021/06/21 09:30:09;;;;;;;9.95;2.67;;;;;;;;;;5032205;28;20052;-59
2021/06/21 09:32:56;;;;;;;13.60;2.92;;;;;;;;;;5025181;28;20073;-59
2021/06/21 09:35:26;;;;;;;8.63;2.85;;;;;;;;;;5030527;28;20574;-59
2021/06/21 09:37:53;;;;;;;7.45;2.70;;;;;;;;;;5033558;28;20092;-59
2021/06/21 09:40:30;;;;;;;8.73;2.75;;;;;;;;;;5024867;28;20123;-59
2021/06/21 09:42:58;;;;;;;7.82;2.88;;;;;;;;;;5029628;28;20042;-59
2021/06/21 09:45:26;;;;;;;14.65;3.45;;;;;;;;;;5025798;28;20041;-59
2021/06/21 09:47:52;;;;;;;7.88;2.83;;;;;;;;;;5027180;28;20045;-59
2021/06/21 09:50:26;;;;;;;9.45;2.78;;;;;;;;;;5032114;28;20456;-59
2021/06/21 09:52:55;;;;;;;7.50;2.70;;;;;;;;;;5035490;28;20382;-59
2021/06/21 09:55:29;;;;;;;15.50;2.47;;;;;;;;;;5028184;28;20128;-59
2021/06/21 09:58:10;;;;;;;8.60;2.45;;;;;;;;;;5026301;28;20045;-59
2021/06/21 10:00:48;;;;;;;9.93;2.88;;;;;;;;;;5024012;28;20045;-59
2021/06/21 10:03:19;;;;;;;8.63;2.50;;;;;;;;;;5025996;28;20048;-59
2021/06/21 10:06:09;;;;;;;9.20;3.05;;;;;;;;;;5034063;28;20056;-59
2021/06/21 10:08:52;;;;;;;11.00;2.92;;;;;;;;;;5031456;28;20125;-59
2021/06/21 10:11:28;;;;;;;15.70;2.78;;;;;;;;;;5031643;28;20084;-59
2021/06/21 10:14:06;;;;;;;9.25;3.10;;;;;;;;;;5027039;28;20045;-59
2021/06/21 10:16:34;;;;;;;9.80;2.70;;;;;;;;;;5039283;28;20053;-59
2021/06/21 10:19:02;;;;;;;14.20;3.40;;;;;;;;;;5032011;28;20057;-59
2021/06/21 10:21:29;;;;;;;7.97;2.72;;;;;;;;;;5040597;28;20049;-59
2021/06/21 10:23:58;;;;;;;5.63;2.40;;;;;;;;;;5033186;28;20038;-60
2021/06/21 10:26:25;;;;;;;12.95;3.35;;;;;;;;;;5033973;28;20049;-60
2021/06/21 10:28:52;;;;;;;9.63;2.92;;;;;;;;;;5029939;28;20133;-59
2021/06/21 10:31:23;;;;;;;7.50;2.92;;;;;;;;;;5032640;28;20037;-60
2021/06/21 10:33:54;;;;;;;9.48;2.97;;;;;;;;;;5023816;28;20451;-60
2021/06/21 10:36:22;;;;;;;12.65;2.88;;;;;;;;;;5032609;28;20053;-59
2021/06/21 10:39:08;;;;;;;12.57;3.28;;;;;;;;;;5023307;28;20137;-59
2021/06/21 10:41:36;;;;;;;8.45;3.05;;;;;;;;;;5026191;28;20460;-59
2021/06/21 10:44:03;;;;;;;11.00;2.97;;;;;;;;;;5034239;28;20400;-60
2021/06/21 10:46:30;;;;;;;8.57;3.07;;;;;;;;;;5028036;28;20508;-59
2021/06/21 10:48:57;;;;;;;10.75;3.30;;;;;;;;;;5028671;28;20034;-60
2021/06/21 10:51:29;;;;;;;11.97;3.30;;;;;;;;;;5030869;28;20077;-60
2021/06/21 10:53:56;;;;;;;7.72;2.80;;;;;;;;;;5024249;28;20293;-59
2021/06/21 10:56:43;;;;;;;9.52;2.97;;;;;;;;;;5029711;28;20048;-59
2021/06/21 10:59:11;;;;;;;7.70;2.67;;;;;;;;;;5028065;28;20108;-60
2021/06/21 11:01:46;;;;;;;9.93;2.72;;;;;;;;;;5029403;28;20103;-59
2021/06/21 11:04:35;;;;;;;9.48;3.17;;;;;;;;;;5033801;28;20071;-60
2021/06/21 11:07:19;;;;;;;9.77;2.92;;;;;;;;;;5027255;28;20563;-60
2021/06/21 11:09:48;;;;;;;6.75;2.88;;;;;;;;;;5037820;28;20041;-59
2021/06/21 11:12:21;;;;;;;7.90;3.03;;;;;;;;;;5035696;28;20051;-60
2021/06/21 11:15:07;;;;;;;9.93;2.85;;;;;;;;;;5031566;28;20045;-59
2021/06/21 11:17:53;;;;;;;10.30;2.97;;;;;;;;;;5035812;28;20129;-60
2021/06/21 11:20:34;;;;;;;7.32;2.53;;;;;;;;;;5041390;28;20049;-60
2021/06/21 11:23:08;;;;;;;7.53;2.50;;;;;;;;;;5024453;28;20049;-60
2021/06/21 11:25:49;;;;;;;7.35;2.50;;;;;;;;;;5042132;28;20053;-60
2021/06/21 11:28:37;;;;;;;7.60;2.58;;;;;;;;;;5030822;28;20614;-59
2021/06/21 11:31:19;;;;;;;6.80;2.45;;;;;;;;;;5034652;28;20072;-59
2021/06/21 11:33:51;;;;;;;7.68;2.65;;;;;;;;;;5038103;28;20103;-60
2021/06/21 11:36:39;;;;;;;9.15;2.90;;;;;;;;;;5031223;28;20045;-60
2021/06/21 11:39:16;;;;;;;9.35;2.95;;;;;;;;;;5039528;28;20041;-60
2021/06/21 11:41:52;;;;;;;9.27;2.67;;;;;;;;;;5034533;28;20684;-60
2021/06/21 11:44:40;;;;;;;10.55;2.85;;;;;;;;;;5032250;28;20092;-60
2021/06/21 11:47:17;;;;;;;9.13;2.40;;;;;;;;;;5034027;28;20113;-60
2021/06/21 11:49:45;;;;;;;9.65;2.72;;;;;;;;;;5033769;28;20094;-60
2021/06/21 11:52:21;;;;;;;6.10;2.70;;;;;;;;;;5031985;28;20037;-60
2021/06/21 11:54:49;;;;;;;9.95;2.42;;;;;;;;;;5023081;28;20053;-60
2021/06/21 11:57:17;;;;;;;10.15;3.13;;;;;;;;;;5043643;28;20040;-60
2021/06/21 11:59:45;;;;;;;11.23;3.00;;;;;;;;;;5039486;28;20103;-60
2021/06/21 12:02:13;;;;;;;15.32;2.85;;;;;;;;;;5037128;28;20059;-60
2021/06/21 12:04:41;;;;;;;8.77;2.78;;;;;;;;;;5028173;28;20133;-60
2021/06/21 12:07:09;;;;;;;8.45;2.70;;;;;;;;;;5043930;28;20053;-60
2021/06/21 12:09:49;;;;;;;8.85;2.85;;;;;;;;;;5040581;28;20435;-59
2021/06/21 12:12:36;;;;;;;7.68;2.47;;;;;;;;;;5037716;28;20561;-60
2021/06/21 12:15:04;;;;;;;5.78;2.30;;;;;;;;;;5037930;28;20107;-60
2021/06/21 12:17:31;;;;;;;8.95;3.30;;;;;;;;;;5035628;28;20493;-59
2021/06/21 12:20:03;;;;;;;6.30;2.33;;;;;;;;;;5032717;28;20391;-60
2021/06/21 12:22:29;;;;;;;10.32;2.70;;;;;;;;;;5034249;28;20052;-60
2021/06/21 12:24:56;;;;;;;10.43;3.13;;;;;;;;;;5033530;28;20050;-60
2021/06/21 12:27:23;;;;;;;8.13;2.47;;;;;;;;;;5032686;28;20660;-60
2021/06/21 12:29:52;;;;;;;10.32;2.90;;;;;;;;;;5029162;28;20043;-60
2021/06/21 12:32:19;;;;;;;6.97;2.45;;;;;;;;;;5033883;28;20050;-60
2021/06/21 12:34:48;;;;;;;8.30;2.30;;;;;;;;;;5034203;28;20043;-59
2021/06/21 12:37:27;;;;;;;11.68;2.40;;;;;;;;;;5026033;28;20106;-60
2021/06/21 12:39:59;;;;;;;7.43;2.85;;;;;;;;;;5029742;28;20585;-60
2021/06/21 12:42:30;;;;;;;4.85;2.10;;;;;;;;;;5034307;28;20068;-60
2021/06/21 12:45:06;;;;;;;9.10;2.58;;;;;;;;;;5031360;28;20486;-60
2021/06/21 12:47:33;;;;;;;9.57;2.60;;;;;;;;;;5024683;28;20069;-60
2021/06/21 12:50:04;;;;;;;9.10;2.90;;;;;;;;;;5015498;28;20040;-60
2021/06/21 12:52:32;;;;;;;8.63;2.80;;;;;;;;;;5027633;28;20079;-60
2021/06/21 12:55:06;;;;;;;6.65;2.72;;;;;;;;;;5039773;28;20609;-60
2021/06/21 12:57:50;;;;;;;9.10;3.05;;;;;;;;;;5044902;28;20048;-60
2021/06/21 13:00:18;;;;;;;9.75;2.85;;;;;;;;;;5033970;28;20069;-60
2021/06/21 13:02:46;;;;;;;5.55;2.50;;;;;;;;;;5029900;28;20402;-60
2021/06/21 13:05:13;;;;;;;5.85;2.30;;;;;;;;;;5026013;28;20528;-60
2021/06/21 13:07:40;;;;;;;5.75;2.42;;;;;;;;;;5028917;28;20409;-60
2021/06/21 13:10:22;;;;;;;8.40;2.53;;;;;;;;;;5031489;28;20121;-60
2021/06/21 13:12:54;;;;;;;7.85;2.67;;;;;;;;;;5033060;28;20045;-60
2021/06/21 13:15:22;;;;;;;4.95;2.78;;;;;;;;;;5035252;28;20120;-60
2021/06/21 13:17:54;;;;;;;9.75;2.60;;;;;;;;;;5035159;28;20083;-60
2021/06/21 13:20:21;;;;;;;7.40;2.30;;;;;;;;;;5032133;28;21861;-60
2021/06/21 13:22:50;;;;;;;8.48;2.55;;;;;;;;;;5029427;28;20044;-60
2021/06/21 13:25:19;;;;;;;8.85;2.58;;;;;;;;;;5024624;28;20111;-60
2021/06/21 13:27:59;;;;;;;10.52;2.85;;;;;;;;;;5032116;28;20049;-60
2021/06/21 13:30:33;;;;;;;11.48;2.95;;;;;;;;;;5032912;28;20095;-60
2021/06/21 13:33:05;;;;;;;7.78;2.60;;;;;;;;;;5030640;28;20072;-60
2021/06/21 13:35:47;;;;;;;5.07;2.60;;;;;;;;;;5027254;28;20045;-60
2021/06/21 13:38:15;;;;;;;9.10;3.03;;;;;;;;;;5029180;28;20068;-60
2021/06/21 13:40:42;;;;;;;9.32;3.42;;;;;;;;;;5026831;28;20037;-59
2021/06/21 13:43:10;;;;;;;7.22;3.05;;;;;;;;;;5032701;28;20049;-59
2021/06/21 13:45:38;;;;;;;9.52;3.03;;;;;;;;;;5027751;28;20037;-60
2021/06/21 13:48:12;;;;;;;9.27;2.63;;;;;;;;;;5031092;28;20037;-60
2021/06/21 13:50:51;;;;;;;11.45;2.78;;;;;;;;;;5035238;28;20041;-60
2021/06/21 13:53:21;;;;;;;9.15;2.80;;;;;;;;;;5030433;28;20416;-60
2021/06/21 13:55:48;;;;;;;6.30;2.90;;;;;;;;;;5034197;28;20396;-60
2021/06/21 13:58:15;;;;;;;7.93;3.03;;;;;;;;;;5028399;28;20040;-60
2021/06/21 14:00:44;;;;;;;8.00;2.85;;;;;;;;;;5030952;28;20052;-60
2021/06/21 14:03:23;;;;;;;7.85;2.80;;;;;;;;;;5033280;28;20045;-60
2021/06/21 14:05:51;;;;;;;7.55;2.90;;;;;;;;;;5036730;28;20111;-60
2021/06/21 14:08:17;;;;;;;;;;;;;;;;;;5037645;28;20042;-60
2021/06/21 14:10:44;;;;;;;6.80;2.90;;;;;;;;;;5033447;28;19967;-60
2021/06/21 14:13:11;;;;;;;8.38;3.00;;;;;;;;;;5032167;28;20036;-60
2021/06/21 14:15:38;;;;;;;7.22;3.13;;;;;;;;;;5030763;28;20042;-60
2021/06/21 14:18:05;;;;;;;9.88;3.80;;;;;;;;;;5032528;28;20124;-60
2021/06/21 14:20:31;;;;;;;6.43;3.13;;;;;;;;;;5032770;28;20077;-60
2021/06/21 14:22:58;;;;;;;7.47;3.07;;;;;;;;;;5033746;28;20110;-60
2021/06/21 14:25:25;;;;;;;11.13;3.90;;;;;;;;;;5028241;28;20351;-60
2021/06/21 14:27:52;;;;;;;7.22;3.05;;;;;;;;;;5025564;28;20051;-60
2021/06/21 14:30:19;;;;;;;8.75;3.40;;;;;;;;;;5031090;28;20033;-60
2021/06/21 14:32:46;;;;;;;8.85;3.28;;;;;;;;;;5028432;28;20050;-60
2021/06/21 14:35:13;;;;;;;8.35;3.30;;;;;;;;;;5026360;28;20062;-60
2021/06/21 14:37:40;;;;;;;7.25;3.08;;;;;;;;;;5028378;28;20642;-60
2021/06/21 14:40:08;;;;;;;9.98;3.17;;;;;;;;;;5026130;28;20413;-60
2021/06/21 14:42:36;;;;;;;8.85;3.08;;;;;;;;;;5026590;28;20054;-60
2021/06/21 14:45:06;;;;;;;9.75;3.42;;;;;;;;;;5028938;28;20041;-60
2021/06/21 14:47:34;;;;;;;6.18;3.33;;;;;;;;;;5038612;28;20470;-60
2021/06/21 14:52:33;;;;;;;9.23;4.13;;;;;;;;;;5044681;28;20050;-60
2021/06/21 14:55:04;;;;;;;8.25;3.60;;;;;;;;;;5040851;28;20047;-60
2021/06/21 14:57:33;;;;;;;11.07;3.75;;;;;;;;;;5035682;28;20454;-60
2021/06/21 15:00:04;;;;;;;10.40;3.72;;;;;;;;;;5042098;28;20037;-60
2021/06/21 15:02:31;;;;;;;7.20;3.50;;;;;;;;;;5035698;28;20047;-60
2021/06/21 15:04:58;;;;;;;9.85;3.95;;;;;;;;;;5034026;28;20079;-60
2021/06/21 15:07:25;;;;;;;10.67;3.40;;;;;;;;;;5031150;28;20041;-60
2021/06/21 15:09:52;;;;;;;10.93;4.10;;;;;;;;;;5037237;28;20049;-60
2021/06/21 15:12:22;;;;;;;6.30;3.30;;;;;;;;;;5032430;28;20452;-60
2021/06/21 15:14:48;;;;;;;10.18;3.70;;;;;;;;;;5034395;28;20048;-60
2021/06/21 15:17:15;;;;;;;14.50;4.90;;;;;;;;;;5026078;28;20543;-60
2021/06/21 15:19:42;;;;;;;12.57;4.10;;;;;;;;;;5031288;28;20091;-60
2021/06/21 15:22:09;;;;;;;11.73;4.68;;;;;;;;;;5035618;28;20050;-60
2021/06/21 15:24:36;;;;;;;12.63;4.38;;;;;;;;;;5033478;28;20045;-60
2021/06/21 15:27:02;;;;;;;10.80;4.47;;;;;;;;;;5034186;28;20036;-60
2021/06/21 15:29:30;;;;;;;10.50;4.40;;;;;;;;;;5032001;28;20064;-59
2021/06/21 15:31:57;;;;;;;12.68;4.45;;;;;;;;;;5033856;28;20291;-60
2021/06/21 15:34:25;;;;;;;14.25;4.70;;;;;;;;;;5032069;28;20110;-60
2021/06/21 15:36:53;;;;;;;9.85;4.20;;;;;;;;;;5022301;28;20046;-60
2021/06/21 15:39:19;;;;;;;12.07;4.00;;;;;;;;;;5026311;28;20111;-60
2021/06/21 15:41:46;;;;;;;13.30;4.13;;;;;;;;;;5038566;28;20612;-60
2021/06/21 15:44:13;;;;;;;16.23;5.38;;;;;;;;;;5036996;28;20631;-60
2021/06/21 15:46:40;;;;;;;14.13;5.00;;;;;;;;;;5039220;28;20041;-60
2021/06/21 15:49:07;;;;;;;14.60;4.28;;;;;;;;;;5030835;28;20296;-60
2021/06/21 15:51:37;;;;;;;15.23;4.80;;;;;;;;;;5038381;28;20046;-60
2021/06/21 15:54:04;;;;;;;14.00;4.85;;;;;;;;;;5031149;28;20037;-60
2021/06/21 15:56:32;;;;;;;13.02;4.32;;;;;;;;;;5040692;28;20513;-60
2021/06/21 15:59:00;;;;;;;13.30;4.63;;;;;;;;;;5033388;28;20041;-60
2021/06/21 16:01:27;;;;;;;9.60;4.00;;;;;;;;;;5036901;28;20303;-60
2021/06/21 16:03:55;;;;;;;12.60;4.15;;;;;;;;;;5031254;28;20053;-60
2021/06/21 16:06:22;;;;;;;14.97;4.50;;;;;;;;;;5029801;28;20064;-60
2021/06/21 16:08:48;;;;;;;13.05;4.03;;;;;;;;;;5036023;28;20045;-60
2021/06/21 16:11:17;;;;;;;12.68;3.78;;;;;;;;;;5036672;28;20041;-60
2021/06/21 16:13:44;;;;;;;20.02;4.97;;;;;;;;;;5030994;28;20117;-60
2021/06/21 16:16:10;;;;;;;11.30;4.75;;;;;;;;;;5029287;28;20485;-60
2021/06/21 16:18:37;;;;;;;9.93;4.33;;;;;;;;;;5024056;28;20087;-60
2021/06/21 16:21:05;;;;;;;14.30;4.63;;;;;;;;;;5036397;28;20048;-60
2021/06/21 16:23:32;;;;;;;13.25;4.63;;;;;;;;;;5027332;28;20389;-60
2021/06/21 16:25:58;;;;;;;13.93;4.47;;;;;;;;;;5026106;28;20132;-60